createdAt,value
2023-02-11T00:00:55.725Z,2.47
2023-02-11T00:01:57.681Z,2.63
2023-02-11T00:02:59.580Z,2.20
2023-02-11T00:04:02.410Z,3.88
2023-02-11T00:05:04.600Z,2.03
2023-02-11T00:06:09.453Z,2.78
2023-02-11T00:07:11.252Z,1.80
2023-02-11T00:08:17.021Z,2.75
2023-02-11T00:09:18.942Z,2.40
2023-02-11T00:10:20.886Z,3.03
2023-02-11T00:11:25.548Z,3.30
2023-02-11T00:12:27.346Z,2.13
2023-02-11T00:13:29.185Z,2.45
2023-02-11T00:14:30.953Z,3.33
2023-02-11T00:15:32.680Z,2.53
2023-02-11T00:16:34.840Z,2.35
2023-02-11T00:17:36.613Z,3.28
2023-02-11T00:18:38.927Z,1.88
2023-02-11T00:19:40.734Z,2.38
2023-02-11T00:20:43.399Z,1.97
2023-02-11T00:21:45.242Z,2.28
2023-02-11T00:22:47.072Z,2.78
2023-02-11T00:23:49.437Z,3.33
2023-02-11T00:24:51.275Z,1.85
2023-02-11T00:25:53.500Z,2.92
2023-02-11T00:26:55.294Z,2.28
2023-02-11T00:27:57.123Z,3.05
2023-02-11T00:29:00.850Z,3.38
2023-02-11T00:30:03.114Z,1.98
2023-02-11T00:31:05.865Z,2.70
2023-02-11T00:32:09.006Z,2.90
2023-02-11T00:33:10.855Z,3.25
2023-02-11T00:34:12.737Z,2.10
2023-02-11T00:35:14.773Z,3.60
2023-02-11T00:36:20.094Z,2.70
2023-02-11T00:37:22.652Z,2.47
2023-02-11T00:38:24.542Z,3.60
2023-02-11T00:39:26.636Z,2.65
2023-02-11T00:40:28.408Z,3.10
2023-02-11T00:41:30.589Z,2.35
2023-02-11T00:42:35.658Z,2.15
2023-02-11T00:43:37.706Z,3.23
2023-02-11T00:44:39.484Z,2.67
2023-02-11T00:45:41.236Z,2.47
2023-02-11T00:46:43.158Z,2.33
2023-02-11T00:47:45.622Z,2.05
2023-02-11T00:48:47.482Z,3.75
2023-02-11T00:49:49.408Z,2.53
2023-02-11T00:50:51.266Z,2.55
2023-02-11T00:51:53.522Z,2.70
2023-02-11T00:52:55.325Z,2.78
2023-02-11T00:53:57.149Z,5.10
2023-02-11T00:54:58.949Z,2.83
2023-02-11T00:56:01.251Z,2.00
2023-02-11T00:57:03.287Z,2.13
2023-02-11T00:58:05.076Z,1.50
2023-02-11T00:59:06.957Z,2.90
2023-02-11T01:00:09.896Z,3.00
2023-02-11T01:01:12.654Z,4.05
2023-02-11T01:02:14.596Z,3.10
2023-02-11T01:03:18.052Z,2.30
2023-02-11T01:04:19.881Z,3.35
2023-02-11T01:05:22.221Z,2.35
2023-02-11T01:06:24.173Z,2.92
2023-02-11T01:07:26.922Z,3.65
2023-02-11T01:08:29.884Z,3.28
2023-02-11T01:09:31.746Z,2.10
2023-02-11T01:10:33.790Z,3.25
2023-02-11T01:11:35.721Z,2.97
2023-02-11T01:12:37.799Z,3.33
2023-02-11T01:13:39.946Z,3.72
2023-02-11T01:14:41.683Z,2.80
2023-02-11T01:15:43.547Z,2.20
2023-02-11T01:16:45.431Z,2.67
2023-02-11T01:17:48.491Z,2.72
2023-02-11T01:18:50.330Z,3.38
2023-02-11T01:19:52.810Z,2.38
2023-02-11T01:20:54.971Z,2.92
2023-02-11T01:21:58.365Z,3.63
2023-02-11T01:23:00.219Z,2.40
2023-02-11T01:24:02.090Z,3.22
2023-02-11T01:25:04.067Z,2.58
2023-02-11T01:26:06.090Z,1.80
2023-02-11T01:27:08.019Z,2.75
2023-02-11T01:28:22.292Z,2.20
2023-02-11T01:29:24.427Z,2.20
2023-02-11T01:30:29.595Z,3.28
2023-02-11T01:31:32.001Z,2.90
2023-02-11T01:32:36.386Z,2.80
2023-02-11T01:33:38.470Z,1.90
2023-02-11T01:34:41.268Z,2.72
2023-02-11T01:35:43.735Z,3.63
2023-02-11T01:36:46.085Z,2.15
2023-02-11T01:37:48.008Z,3.38
2023-02-11T01:38:49.994Z,1.57
2023-02-11T01:39:52.714Z,2.60
2023-02-11T01:41:07.072Z,2.08
2023-02-11T01:42:15.728Z,2.47
2023-02-11T01:43:20.419Z,2.03
2023-02-11T01:44:30.282Z,2.45
2023-02-11T01:45:47.356Z,4.17
2023-02-11T01:46:49.440Z,2.17
2023-02-11T01:47:54.220Z,3.08
2023-02-11T01:49:00.290Z,3.47
2023-02-11T01:50:02.683Z,2.15
2023-02-11T01:51:14.533Z,2.58
2023-02-11T01:52:20.080Z,2.30
2023-02-11T01:53:41.098Z,4.10
2023-02-11T01:55:04.803Z,2.47
2023-02-11T01:56:26.662Z,2.53
2023-02-11T01:57:32.671Z,2.70
2023-02-11T01:58:39.268Z,3.38
2023-02-11T01:59:52.544Z,3.05
2023-02-11T02:00:55.456Z,3.25
2023-02-11T02:02:03.559Z,3.33
2023-02-11T02:03:09.805Z,2.92
2023-02-11T02:04:13.244Z,3.40
2023-02-11T02:05:20.884Z,2.95
2023-02-11T02:06:43.311Z,2.42
2023-02-11T02:08:04.650Z,2.83
2023-02-11T02:09:29.558Z,1.88
2023-02-11T02:10:34.262Z,2.42
2023-02-11T02:11:37.176Z,3.05
2023-02-11T02:12:39.062Z,1.77
2023-02-11T02:13:40.908Z,4.30
2023-02-11T02:14:43.033Z,2.67
2023-02-11T02:15:52.028Z,2.55
2023-02-11T02:16:54.243Z,3.40
2023-02-11T02:18:10.621Z,2.13
2023-02-11T02:19:47.055Z,3.17
2023-02-11T02:21:26.725Z,2.70
2023-02-11T02:22:57.857Z,3.05
2023-02-11T02:24:23.113Z,2.53
2023-02-11T02:25:33.425Z,2.95
2023-02-11T02:27:04.174Z,1.80
2023-02-11T02:28:16.084Z,2.20
2023-02-11T02:29:51.794Z,1.83
2023-02-11T02:31:24.210Z,3.08
2023-02-11T02:32:57.395Z,3.63
2023-02-11T02:34:06.629Z,3.00
2023-02-11T02:35:31.778Z,2.97
2023-02-11T02:36:51.505Z,2.77
2023-02-11T02:38:07.146Z,3.90
2023-02-11T02:39:25.298Z,3.42
2023-02-11T02:40:34.877Z,2.53
2023-02-11T02:41:39.026Z,2.20
2023-02-11T02:42:42.805Z,1.57
2023-02-11T02:43:48.447Z,2.45
2023-02-11T02:44:52.101Z,3.13
2023-02-11T02:45:54.586Z,2.70
2023-02-11T02:46:56.780Z,2.50
2023-02-11T02:47:58.689Z,2.73
2023-02-11T02:49:01.101Z,3.67
2023-02-11T02:50:04.780Z,1.80
2023-02-11T02:51:27.673Z,3.53
2023-02-11T02:52:37.318Z,3.15
2023-02-11T02:54:00.305Z,1.97
2023-02-11T02:55:35.775Z,2.65
2023-02-11T02:56:54.250Z,3.20
2023-02-11T02:58:12.510Z,3.10
2023-02-11T02:59:34.345Z,3.33
2023-02-11T03:00:59.103Z,4.33
2023-02-11T03:02:14.143Z,1.80
2023-02-11T03:03:42.318Z,2.88
2023-02-11T03:04:54.203Z,2.92
2023-02-11T03:06:08.021Z,2.63
2023-02-11T03:07:32.956Z,2.70
2023-02-11T03:08:36.948Z,2.05
2023-02-11T03:09:58.363Z,3.08
2023-02-11T03:11:01.451Z,1.55
2023-02-11T03:12:05.878Z,3.17
2023-02-11T03:13:08.438Z,2.60
2023-02-11T03:14:13.267Z,2.33
2023-02-11T03:15:17.532Z,2.13
2023-02-11T03:16:23.438Z,2.45
2023-02-11T03:17:27.893Z,2.42
2023-02-11T03:18:33.750Z,3.33
2023-02-11T03:19:39.716Z,1.80
2023-02-11T03:20:45.529Z,2.88
2023-02-11T03:21:49.304Z,2.75
2023-02-11T03:23:03.074Z,2.25
2023-02-11T03:24:14.104Z,3.37
2023-02-11T03:25:16.370Z,3.15
2023-02-11T03:26:37.022Z,2.20
2023-02-11T03:27:49.026Z,2.75
2023-02-11T03:29:08.508Z,2.13
2023-02-11T03:30:26.349Z,3.40
2023-02-11T03:31:50.864Z,2.60
2023-02-11T03:32:59.434Z,2.30
2023-02-11T03:34:10.221Z,2.85
2023-02-11T03:35:17.194Z,2.17
2023-02-11T03:36:27.904Z,2.77
2023-02-11T03:37:40.877Z,3.20
2023-02-11T03:38:49.982Z,3.40
2023-02-11T03:39:57.591Z,3.65
2023-02-11T03:41:02.195Z,3.88
2023-02-11T03:42:07.225Z,2.30
2023-02-11T03:43:22.936Z,2.67
2023-02-11T03:44:29.876Z,3.28
2023-02-11T03:45:31.947Z,3.72
2023-02-11T03:46:38.102Z,2.72
2023-02-11T03:47:43.539Z,3.73
2023-02-11T03:48:51.358Z,2.33
2023-02-11T03:49:55.508Z,3.42
2023-02-11T03:51:00.159Z,3.38
2023-02-11T03:52:05.705Z,2.53
2023-02-11T03:53:08.888Z,2.00
2023-02-11T03:54:16.556Z,4.00
2023-02-11T03:55:21.019Z,2.88
2023-02-11T03:56:27.487Z,3.42
2023-02-11T03:57:29.427Z,3.33
2023-02-11T03:58:31.261Z,2.27
2023-02-11T03:59:48.944Z,4.35
2023-02-11T04:00:50.808Z,3.75
2023-02-11T04:01:53.036Z,3.78
2023-02-11T04:02:54.812Z,3.03
2023-02-11T04:03:56.814Z,2.57
2023-02-11T04:04:58.672Z,3.42
2023-02-11T04:06:00.439Z,3.45
2023-02-11T04:07:02.160Z,3.60
2023-02-11T04:08:04.221Z,2.90
2023-02-11T04:09:06.372Z,3.77
2023-02-11T04:10:08.936Z,3.00
2023-02-11T04:11:10.773Z,4.18
2023-02-11T04:12:12.690Z,3.17
2023-02-11T04:13:15.173Z,3.03
2023-02-11T04:14:16.951Z,3.90
2023-02-11T04:15:19.293Z,3.22
2023-02-11T04:16:21.278Z,2.88
2023-02-11T04:17:23.172Z,2.67
2023-02-11T04:18:25.082Z,3.53
2023-02-11T04:19:26.902Z,2.87
2023-02-11T04:20:28.924Z,3.03
2023-02-11T04:21:30.727Z,2.63
2023-02-11T04:22:32.664Z,4.07
2023-02-11T04:23:34.541Z,4.03
2023-02-11T04:24:36.546Z,2.87
2023-02-11T04:25:38.274Z,2.33
2023-02-11T04:26:40.082Z,3.35
2023-02-11T04:27:41.889Z,3.08
2023-02-11T04:28:43.683Z,3.70
2023-02-11T04:29:45.498Z,3.50
2023-02-11T04:30:48.991Z,3.38
2023-02-11T04:31:51.136Z,5.13
2023-02-11T04:32:54.284Z,3.72
2023-02-11T04:33:57.221Z,4.32
2023-02-11T04:34:59.164Z,2.70
2023-02-11T04:36:01.099Z,3.17
2023-02-11T04:37:03.044Z,4.32
2023-02-11T04:38:04.919Z,3.08
2023-02-11T04:39:07.186Z,4.47
2023-02-11T04:40:09.796Z,3.30
2023-02-11T04:41:11.760Z,3.40
2023-02-11T04:42:13.584Z,3.83
2023-02-11T04:43:15.372Z,2.70
2023-02-11T04:44:17.176Z,4.18
2023-02-11T04:45:18.908Z,2.73
2023-02-11T04:46:20.786Z,3.47
2023-02-11T04:47:22.600Z,4.05
2023-02-11T04:48:25.011Z,3.90
2023-02-11T04:49:26.814Z,4.10
2023-02-11T04:50:28.844Z,2.50
2023-02-11T04:51:31.490Z,4.03
2023-02-11T04:52:33.350Z,3.33
2023-02-11T04:53:35.190Z,3.72
2023-02-11T04:54:37.095Z,3.45
2023-02-11T04:55:38.815Z,4.40
2023-02-11T04:56:40.802Z,3.45
2023-02-11T04:57:42.729Z,3.10
2023-02-11T04:58:44.501Z,2.92
2023-02-11T04:59:46.248Z,4.32
2023-02-11T05:00:48.272Z,3.60
2023-02-11T05:01:50.301Z,4.03
2023-02-11T05:02:52.137Z,3.55
2023-02-11T05:03:53.964Z,3.03
2023-02-11T05:04:55.776Z,4.20
2023-02-11T05:05:57.958Z,3.53
2023-02-11T05:06:59.761Z,5.10
2023-02-11T05:08:01.567Z,3.08
2023-02-11T05:09:03.513Z,3.83
2023-02-11T05:10:05.646Z,3.78
2023-02-11T05:11:08.598Z,3.73
2023-02-11T05:12:10.333Z,3.90
2023-02-11T05:13:12.109Z,3.53
2023-02-11T05:14:14.063Z,3.38
2023-02-11T05:15:16.041Z,4.93
2023-02-11T05:16:18.566Z,3.67
2023-02-11T05:17:20.405Z,3.15
2023-02-11T05:18:22.664Z,4.32
2023-02-11T05:19:24.553Z,3.45
2023-02-11T05:20:26.310Z,3.60
2023-02-11T05:21:28.256Z,3.90
2023-02-11T05:22:30.482Z,2.92
2023-02-11T05:23:32.243Z,4.35
2023-02-11T05:24:34.549Z,3.20
2023-02-11T05:25:36.856Z,4.72
2023-02-11T05:26:38.648Z,4.00
2023-02-11T05:27:40.428Z,3.13
2023-02-11T05:28:42.692Z,3.65
2023-02-11T05:29:44.502Z,3.65
2023-02-11T05:30:46.314Z,4.00
2023-02-11T05:31:48.162Z,3.90
2023-02-11T05:32:50.642Z,3.60
2023-02-11T05:33:52.437Z,4.07
2023-02-11T05:34:54.269Z,3.78
2023-02-11T05:36:00.435Z,4.30
2023-02-11T05:37:02.315Z,3.13
2023-02-11T05:38:04.133Z,4.65
2023-02-11T05:39:05.924Z,4.60
2023-02-11T05:40:08.090Z,3.92
2023-02-11T05:41:11.394Z,3.72
2023-02-11T05:42:14.167Z,4.70
2023-02-11T05:43:15.911Z,2.95
2023-02-11T05:44:17.778Z,4.45
2023-02-11T05:45:19.548Z,4.75
2023-02-11T05:46:21.486Z,3.60
2023-02-11T05:47:23.362Z,4.60
2023-02-11T05:48:25.199Z,4.35
2023-02-11T05:49:27.105Z,3.80
2023-02-11T05:50:29.019Z,2.75
2023-02-11T05:51:30.814Z,4.65
2023-02-11T05:52:32.692Z,3.40
2023-02-11T05:53:35.071Z,5.18
2023-02-11T05:54:36.828Z,4.35
2023-02-11T05:55:38.780Z,3.97
2023-02-11T05:56:41.681Z,5.18
2023-02-11T05:57:44.384Z,4.13
2023-02-11T05:58:46.108Z,4.90
2023-02-11T05:59:47.895Z,4.80
2023-02-11T06:00:49.673Z,4.03
2023-02-11T06:01:51.708Z,4.18
2023-02-11T06:02:53.681Z,5.17
2023-02-11T06:03:55.597Z,3.58
2023-02-11T06:04:57.581Z,5.38
2023-02-11T06:05:59.466Z,4.20
2023-02-11T06:07:01.556Z,3.60
2023-02-11T06:08:03.516Z,5.23
2023-02-11T06:09:05.355Z,4.60
2023-02-11T06:10:08.028Z,4.45
2023-02-11T06:11:09.837Z,4.97
2023-02-11T06:12:11.857Z,4.63
2023-02-11T06:13:13.788Z,4.80
2023-02-11T06:14:15.832Z,5.15
2023-02-11T06:15:17.600Z,6.07
2023-02-11T06:16:19.499Z,4.90
2023-02-11T06:17:21.250Z,4.20
2023-02-11T06:18:23.143Z,4.17
2023-02-11T06:19:24.954Z,5.47
2023-02-11T06:20:26.900Z,6.00
2023-02-11T06:21:42.486Z,4.97
2023-02-11T06:22:46.065Z,6.10
2023-02-11T06:23:47.935Z,4.07
2023-02-11T06:25:00.713Z,4.57
2023-02-11T06:26:05.411Z,5.38
2023-02-11T06:27:07.273Z,4.18
2023-02-11T06:28:10.556Z,4.43
2023-02-11T06:29:13.085Z,4.70
2023-02-11T06:30:15.046Z,4.90
2023-02-11T06:31:17.552Z,3.88
2023-02-11T06:32:39.431Z,4.75
2023-02-11T06:33:41.940Z,5.00
2023-02-11T06:34:43.849Z,5.20
2023-02-11T06:35:45.676Z,4.43
2023-02-11T06:36:47.572Z,5.53
2023-02-11T06:37:49.728Z,4.93
2023-02-11T06:38:51.755Z,5.70
2023-02-11T06:39:53.611Z,4.37
2023-02-11T06:40:55.856Z,4.82
2023-02-11T06:41:57.741Z,6.82
2023-02-11T06:42:59.502Z,5.35
2023-02-11T06:44:01.560Z,4.50
2023-02-11T06:45:06.064Z,4.47
2023-02-11T06:46:08.205Z,5.32
2023-02-11T06:47:10.066Z,4.60
2023-02-11T06:48:12.010Z,5.05
2023-02-11T06:49:14.088Z,5.03
2023-02-11T06:50:15.965Z,5.35
2023-02-11T06:51:17.866Z,6.53
2023-02-11T06:52:19.710Z,4.55
2023-02-11T06:53:21.539Z,4.35
2023-02-11T06:54:23.309Z,4.35
2023-02-11T06:55:25.275Z,6.22
2023-02-11T06:56:30.347Z,6.03
2023-02-11T06:57:35.144Z,5.18
2023-02-11T06:58:37.864Z,5.22
2023-02-11T06:59:39.707Z,5.35
2023-02-11T07:00:41.449Z,6.38
2023-02-11T07:01:43.894Z,5.78
2023-02-11T07:02:45.871Z,3.97
2023-02-11T07:03:47.804Z,5.65
2023-02-11T07:04:49.994Z,4.85
2023-02-11T07:05:52.236Z,4.78
2023-02-11T07:06:54.307Z,5.68
2023-02-11T07:07:56.238Z,4.97
2023-02-11T07:08:58.114Z,5.95
2023-02-11T07:10:00.070Z,4.68
2023-02-11T07:11:08.388Z,5.38
2023-02-11T07:12:10.758Z,4.95
2023-02-11T07:13:12.490Z,5.18
2023-02-11T07:14:14.344Z,5.05
2023-02-11T07:15:16.155Z,5.38
2023-02-11T07:16:19.342Z,5.68
2023-02-11T07:17:21.172Z,4.47
2023-02-11T07:18:22.956Z,4.75
2023-02-11T07:19:24.789Z,5.93
2023-02-11T07:20:26.724Z,7.13
2023-02-11T07:21:28.689Z,5.22
2023-02-11T07:22:30.537Z,4.80
2023-02-11T07:23:33.123Z,5.97
2023-02-11T07:24:34.964Z,3.92
2023-02-11T07:25:36.720Z,5.13
2023-02-11T07:26:38.611Z,5.15
2023-02-11T07:27:40.488Z,5.65
2023-02-11T07:28:43.073Z,4.68
2023-02-11T07:29:46.975Z,6.75
2023-02-11T07:30:48.924Z,5.20
2023-02-11T07:31:50.757Z,5.93
2023-02-11T07:32:52.686Z,5.17
2023-02-11T07:33:56.516Z,7.95
2023-02-11T07:34:58.420Z,5.40
2023-02-11T07:36:01.368Z,5.22
2023-02-11T07:37:03.358Z,4.53
2023-02-11T07:38:05.075Z,6.30
2023-02-11T07:39:06.949Z,4.63
2023-02-11T07:40:09.610Z,4.70
2023-02-11T07:41:14.680Z,7.47
2023-02-11T07:42:16.604Z,4.53
2023-02-11T07:43:18.578Z,4.50
2023-02-11T07:44:20.435Z,5.73
2023-02-11T07:45:22.268Z,3.85
2023-02-11T07:46:26.659Z,6.47
2023-02-11T07:47:28.751Z,4.18
2023-02-11T07:48:30.631Z,6.90
2023-02-11T07:49:32.504Z,5.90
2023-02-11T07:50:34.334Z,5.47
2023-02-11T07:51:36.203Z,6.10
2023-02-11T07:52:38.011Z,5.70
2023-02-11T07:53:39.909Z,5.75
2023-02-11T07:54:41.738Z,4.63
2023-02-11T07:55:43.998Z,6.07
2023-02-11T07:56:45.933Z,5.63
2023-02-11T07:57:47.814Z,5.40
2023-02-11T07:58:50.455Z,7.00
2023-02-11T07:59:53.475Z,5.60
2023-02-11T08:00:55.670Z,5.18
2023-02-11T08:01:57.577Z,6.18
2023-02-11T08:02:59.401Z,5.55
2023-02-11T08:04:02.745Z,6.50
2023-02-11T08:05:04.674Z,6.55
2023-02-11T08:06:12.284Z,6.55
2023-02-11T08:07:18.103Z,4.93
2023-02-11T08:08:20.008Z,6.65
2023-02-11T08:09:21.906Z,6.20
2023-02-11T08:10:23.898Z,5.45
2023-02-11T08:11:28.209Z,5.63
2023-02-11T08:12:30.618Z,5.88
2023-02-11T08:13:33.597Z,4.75
2023-02-11T08:14:35.514Z,4.50
2023-02-11T08:15:37.569Z,6.57
2023-02-11T08:16:40.113Z,6.37
2023-02-11T08:17:42.102Z,6.00
2023-02-11T08:18:44.007Z,5.57
2023-02-11T08:19:45.923Z,6.10
2023-02-11T08:20:47.937Z,4.55
2023-02-11T08:21:50.060Z,6.80
2023-02-11T08:22:51.979Z,4.40
2023-02-11T08:23:55.408Z,5.25
2023-02-11T08:24:58.443Z,5.45
2023-02-11T08:26:04.347Z,5.72
2023-02-11T08:27:06.184Z,6.53
2023-02-11T08:28:09.208Z,7.18
2023-02-11T08:29:13.801Z,7.28
2023-02-11T08:30:15.657Z,6.78
2023-02-11T08:31:29.382Z,5.25
2023-02-11T08:32:31.276Z,6.07
2023-02-11T08:33:34.225Z,3.83
2023-02-11T08:34:37.922Z,6.00
2023-02-11T08:35:40.598Z,6.00
2023-02-11T08:36:42.964Z,5.82
2023-02-11T08:37:44.747Z,5.50
2023-02-11T08:38:47.281Z,4.67
2023-02-11T08:39:49.100Z,5.47
2023-02-11T08:40:51.074Z,6.05
2023-02-11T08:41:56.537Z,6.75
2023-02-11T08:42:58.480Z,7.65
2023-02-11T08:44:01.032Z,6.50
2023-02-11T08:45:03.336Z,5.75
2023-02-11T08:46:05.823Z,5.75
2023-02-11T08:47:07.645Z,6.90
2023-02-11T08:48:09.538Z,5.97
2023-02-11T08:49:11.586Z,6.07
2023-02-11T08:50:13.342Z,5.10
2023-02-11T08:51:18.559Z,6.22
2023-02-11T08:52:20.404Z,5.10
2023-02-11T08:53:25.221Z,6.82
2023-02-11T08:54:26.982Z,5.43
2023-02-11T08:55:28.745Z,6.23
2023-02-11T08:56:32.379Z,6.38
2023-02-11T08:57:34.217Z,8.30
2023-02-11T08:58:36.397Z,6.45
2023-02-11T08:59:40.105Z,6.30
2023-02-11T09:00:44.033Z,5.88
2023-02-11T09:01:47.332Z,6.32
2023-02-11T09:02:49.229Z,7.07
2023-02-11T09:03:51.532Z,5.60
2023-02-11T09:04:53.334Z,6.28
2023-02-11T09:05:55.362Z,6.60
2023-02-11T09:06:57.600Z,5.63
2023-02-11T09:07:59.313Z,4.68
2023-02-11T09:09:01.356Z,6.40
2023-02-11T09:10:03.576Z,4.45
2023-02-11T09:11:05.979Z,8.52
2023-02-11T09:12:07.930Z,5.32
2023-02-11T09:13:10.134Z,4.93
2023-02-11T09:14:21.352Z,5.00
2023-02-11T09:15:23.236Z,7.20
2023-02-11T09:16:28.081Z,5.95
2023-02-11T09:17:29.942Z,8.23
2023-02-11T09:18:32.093Z,6.50
2023-02-11T09:19:34.005Z,6.25
2023-02-11T09:20:35.899Z,6.13
2023-02-11T09:21:38.166Z,6.07
2023-02-11T09:22:40.044Z,5.50
2023-02-11T09:23:43.737Z,7.68
2023-02-11T09:24:45.659Z,6.17
2023-02-11T09:25:47.512Z,4.95
2023-02-11T09:26:49.704Z,6.78
2023-02-11T09:27:52.363Z,6.05
2023-02-11T09:28:55.017Z,6.45
2023-02-11T09:29:56.820Z,6.53
2023-02-11T09:30:59.011Z,5.60
2023-02-11T09:32:00.917Z,5.15
2023-02-11T09:33:03.270Z,6.22
2023-02-11T09:34:06.904Z,8.10
2023-02-11T09:35:08.899Z,6.50
2023-02-11T09:36:10.821Z,5.70
2023-02-11T09:37:12.584Z,5.60
2023-02-11T09:38:14.384Z,4.80
2023-02-11T09:39:18.726Z,4.90
2023-02-11T09:40:21.277Z,6.03
2023-02-11T09:41:39.194Z,7.10
2023-02-11T09:43:04.274Z,7.13
2023-02-11T09:44:10.649Z,7.95
2023-02-11T09:45:26.166Z,6.75
2023-02-11T09:46:33.164Z,5.70
2023-02-11T09:47:42.826Z,5.80
2023-02-11T09:48:47.907Z,7.65
2023-02-11T09:49:53.941Z,5.93
2023-02-11T09:51:00.982Z,6.43
2023-02-11T09:52:15.202Z,5.70
2023-02-11T09:53:28.420Z,6.55
2023-02-11T09:54:52.876Z,6.78
2023-02-11T09:55:59.743Z,5.68
2023-02-11T09:57:06.272Z,6.37
2023-02-11T09:58:31.900Z,5.22
2023-02-11T09:59:35.362Z,5.53
2023-02-11T10:00:44.158Z,4.53
2023-02-11T10:01:57.789Z,5.22
2023-02-11T10:03:11.691Z,7.05
2023-02-11T10:04:57.831Z,7.35
2023-02-11T10:06:34.360Z,6.80
2023-02-11T10:07:43.937Z,6.15
2023-02-11T10:09:10.531Z,6.70
2023-02-11T10:10:17.852Z,6.88
2023-02-11T10:11:37.538Z,7.70
2023-02-11T10:13:16.261Z,6.47
2023-02-11T10:14:38.694Z,4.53
2023-02-11T10:16:22.271Z,5.47
2023-02-11T10:17:46.456Z,6.65
2023-02-11T10:19:07.420Z,5.82
2023-02-11T10:20:41.817Z,5.43
2023-02-11T10:21:55.288Z,5.57
2023-02-11T10:23:01.324Z,5.35
2023-02-11T10:24:10.036Z,7.95
2023-02-11T10:25:40.479Z,7.00
2023-02-11T10:26:43.800Z,6.38
2023-02-11T10:27:46.019Z,6.75
2023-02-11T10:28:52.549Z,5.37
2023-02-11T10:30:02.844Z,6.13
2023-02-11T10:31:15.810Z,5.70
2023-02-11T10:32:29.125Z,5.93
2023-02-11T10:33:31.644Z,5.93
2023-02-11T10:34:34.678Z,5.85
2023-02-11T10:35:37.864Z,5.82
2023-02-11T10:36:44.197Z,6.82
2023-02-11T10:37:46.215Z,4.93
2023-02-11T10:38:48.000Z,6.30
2023-02-11T10:39:49.727Z,5.38
2023-02-11T10:40:51.971Z,5.38
2023-02-11T10:41:58.462Z,7.95
2023-02-11T10:43:04.610Z,7.40
2023-02-11T10:44:07.599Z,5.57
2023-02-11T10:45:32.739Z,4.63
2023-02-11T10:46:40.320Z,5.75
2023-02-11T10:47:45.042Z,5.50
2023-02-11T10:48:50.485Z,5.55
2023-02-11T10:49:52.399Z,4.95
2023-02-11T10:51:17.499Z,6.03
2023-02-11T10:52:28.058Z,4.82
2023-02-11T10:53:30.099Z,4.70
2023-02-11T10:54:33.239Z,5.30
2023-02-11T10:55:40.036Z,5.47
2023-02-11T10:57:02.227Z,5.63
2023-02-11T10:58:26.658Z,6.38
2023-02-11T10:59:40.310Z,5.93
2023-02-11T11:00:43.730Z,5.60
2023-02-11T11:01:49.162Z,5.65
2023-02-11T11:03:00.371Z,4.03
2023-02-11T11:04:02.374Z,4.93
2023-02-11T11:05:14.907Z,4.28
2023-02-11T11:06:29.177Z,5.13
2023-02-11T11:07:33.803Z,4.75
2023-02-11T11:08:49.355Z,5.65
2023-02-11T11:09:51.300Z,4.93
2023-02-11T11:11:09.351Z,6.75
2023-02-11T11:12:49.720Z,4.28
2023-02-11T11:13:59.134Z,3.97
2023-02-11T11:15:20.625Z,4.53
2023-02-11T11:16:32.934Z,4.57
2023-02-11T11:17:34.944Z,3.72
2023-02-11T11:18:36.941Z,5.50
2023-02-11T11:19:39.362Z,4.60
2023-02-11T11:20:56.424Z,4.43
2023-02-11T11:21:58.347Z,3.80
2023-02-11T11:23:19.743Z,4.93
2023-02-11T11:24:33.609Z,5.65
2023-02-11T11:25:38.623Z,3.55
2023-02-11T11:26:43.634Z,4.50
2023-02-11T11:27:50.575Z,3.30
2023-02-11T11:28:54.282Z,4.90
2023-02-11T11:29:56.978Z,4.75
2023-02-11T11:31:00.356Z,4.93
2023-02-11T11:32:15.318Z,5.28
2023-02-11T11:33:24.878Z,4.07
2023-02-11T11:34:31.337Z,4.43
2023-02-11T11:35:33.205Z,5.13
2023-02-11T11:36:40.390Z,4.07
2023-02-11T11:37:42.333Z,5.18
2023-02-11T11:38:56.020Z,4.95
2023-02-11T11:40:03.500Z,3.40
2023-02-11T11:41:17.714Z,4.67
2023-02-11T11:42:39.281Z,5.15
2023-02-11T11:43:53.848Z,5.80
2023-02-11T11:45:26.812Z,3.97
2023-02-11T11:46:38.213Z,5.40
2023-02-11T11:48:09.156Z,4.10
2023-02-11T11:49:17.611Z,4.18
2023-02-11T11:50:34.582Z,3.22
2023-02-11T11:51:39.326Z,4.57
2023-02-11T11:53:04.494Z,3.45
2023-02-11T11:54:13.399Z,3.40
2023-02-11T11:55:20.873Z,4.63
2023-02-11T11:56:26.805Z,5.18
2023-02-11T11:57:30.880Z,3.40
2023-02-11T11:58:33.933Z,5.32
2023-02-11T11:59:37.238Z,4.43
2023-02-11T12:00:53.061Z,3.88
2023-02-11T12:02:33.614Z,4.85
2023-02-11T12:04:13.205Z,6.35
2023-02-11T12:05:26.956Z,3.00
2023-02-11T12:06:56.556Z,4.07
2023-02-11T12:08:24.310Z,4.13
2023-02-11T12:09:26.702Z,4.35
2023-02-11T12:10:47.194Z,3.60
2023-02-11T12:12:32.272Z,5.55
2023-02-11T12:14:03.007Z,3.80
2023-02-11T12:15:24.535Z,3.40
2023-02-11T12:16:57.135Z,3.80
2023-02-11T12:18:22.273Z,4.57
2023-02-11T12:19:42.628Z,4.63
2023-02-11T12:21:05.581Z,3.70
2023-02-11T12:22:30.601Z,3.33
2023-02-11T12:23:52.764Z,3.92
2023-02-11T12:25:01.088Z,4.45
2023-02-11T12:26:19.788Z,4.80
2023-02-11T12:27:56.296Z,4.63
2023-02-11T12:29:33.780Z,3.20
2023-02-11T12:30:47.405Z,3.22
2023-02-11T12:32:15.290Z,5.13
2023-02-11T12:33:29.795Z,4.57
2023-02-11T12:35:09.557Z,4.87
2023-02-11T12:36:44.461Z,4.90
2023-02-11T12:38:15.953Z,3.70
2023-02-11T12:39:26.907Z,3.60
2023-02-11T12:40:51.980Z,4.93
2023-02-11T12:42:37.839Z,5.10
2023-02-11T12:43:42.595Z,3.83
2023-02-11T12:45:04.496Z,4.70
2023-02-11T12:46:41.586Z,4.15
2023-02-11T12:48:09.476Z,5.60
2023-02-11T12:49:38.913Z,4.43
2023-02-11T12:51:09.392Z,4.75
2023-02-11T12:52:22.690Z,3.78
2023-02-11T12:53:43.253Z,3.80
2023-02-11T12:54:54.975Z,4.07
2023-02-11T12:56:05.024Z,4.10
2023-02-11T12:57:23.299Z,3.67
2023-02-11T12:58:44.200Z,5.72
2023-02-11T12:59:59.080Z,4.10
2023-02-11T13:01:21.859Z,3.63
2023-02-11T13:02:41.455Z,3.00
2023-02-11T13:04:20.092Z,4.18
2023-02-11T13:05:37.618Z,3.08
2023-02-11T13:06:46.136Z,5.13
2023-02-11T13:07:50.565Z,3.75
2023-02-11T13:09:01.278Z,3.17
2023-02-11T13:10:36.154Z,4.90
2023-02-11T13:11:42.669Z,4.25
2023-02-11T13:13:07.081Z,3.65
2023-02-11T13:14:27.053Z,2.83
2023-02-11T13:15:30.367Z,3.67
2023-02-11T13:16:40.742Z,3.67
2023-02-11T13:18:01.288Z,4.95
2023-02-11T13:19:34.523Z,2.53
2023-02-11T13:20:57.034Z,3.55
2023-02-11T13:22:27.513Z,2.88
2023-02-11T13:23:47.258Z,3.42
2023-02-11T13:25:16.130Z,3.33
2023-02-11T13:26:31.894Z,3.08
2023-02-11T13:27:45.672Z,4.35
2023-02-11T13:29:08.905Z,2.77
2023-02-11T13:30:30.723Z,2.95
2023-02-11T13:31:33.017Z,3.78
2023-02-11T13:32:53.807Z,3.63
2023-02-11T13:33:55.635Z,3.72
2023-02-11T13:34:59.159Z,3.05
2023-02-11T13:36:04.134Z,3.22
2023-02-11T13:37:12.875Z,2.75
2023-02-11T13:38:17.645Z,3.65
2023-02-11T13:39:23.343Z,2.85
2023-02-11T13:40:35.511Z,2.67
2023-02-11T13:41:41.572Z,2.85
2023-02-11T13:42:52.447Z,2.05
2023-02-11T13:44:01.832Z,4.22
2023-02-11T13:45:37.107Z,3.13
2023-02-11T13:46:50.941Z,4.20
2023-02-11T13:48:01.681Z,3.88
2023-02-11T13:49:03.518Z,1.73
2023-02-11T13:50:08.324Z,1.75
2023-02-11T13:51:13.522Z,2.33
2023-02-11T13:52:31.079Z,2.67
2023-02-11T13:53:51.686Z,2.38
2023-02-11T13:54:56.817Z,3.50
2023-02-11T13:56:30.576Z,2.03
2023-02-11T13:57:35.437Z,2.25
2023-02-11T13:58:47.870Z,2.28
2023-02-11T13:59:53.934Z,4.50
2023-02-11T14:00:56.985Z,3.30
2023-02-11T14:02:39.409Z,2.55
2023-02-11T14:04:39.485Z,2.50
2023-02-11T14:06:29.152Z,1.70
2023-02-11T14:07:53.747Z,1.90
2023-02-11T14:09:21.743Z,2.53
2023-02-11T14:10:55.118Z,1.50
2023-02-11T14:12:23.478Z,3.35
2023-02-11T14:13:31.341Z,6.75
2023-02-11T14:14:34.959Z,2.13
2023-02-11T14:15:40.555Z,2.95
2023-02-11T14:17:03.362Z,2.67
2023-02-11T14:18:48.848Z,2.67
2023-02-11T14:19:51.180Z,3.37
2023-02-11T14:21:22.031Z,1.70
2023-02-11T14:22:47.028Z,2.20
2023-02-11T14:23:53.350Z,1.77
2023-02-11T14:24:58.892Z,2.10
2023-02-11T14:26:23.325Z,1.85
2023-02-11T14:27:30.564Z,1.80
2023-02-11T14:28:34.385Z,2.60
2023-02-11T14:29:43.982Z,1.65
2023-02-11T14:30:53.000Z,1.42
2023-02-11T14:32:15.420Z,1.80
2023-02-11T14:33:50.631Z,2.58
2023-02-11T14:35:04.357Z,2.25
2023-02-11T14:36:06.212Z,2.80
2023-02-11T14:37:33.202Z,2.88
2023-02-11T14:39:00.195Z,2.90
2023-02-11T14:40:21.527Z,2.58
2023-02-11T14:41:25.357Z,1.60
2023-02-11T14:42:29.360Z,3.50
2023-02-11T14:43:41.918Z,1.83
2023-02-11T14:44:43.833Z,2.03
2023-02-11T14:45:50.738Z,2.53
2023-02-11T14:46:53.969Z,4.10
2023-02-11T14:48:04.672Z,2.90
2023-02-11T14:49:08.070Z,1.95
2023-02-11T14:50:19.422Z,2.08
2023-02-11T14:51:27.565Z,1.60
2023-02-11T14:52:31.960Z,1.73
2023-02-11T14:53:35.062Z,3.97
2023-02-11T14:54:37.061Z,2.35
2023-02-11T14:55:42.926Z,1.40
2023-02-11T14:56:46.777Z,1.73
2023-02-11T14:57:50.999Z,2.50
2023-02-11T14:58:54.416Z,1.42
2023-02-11T15:00:02.478Z,1.90
2023-02-11T15:01:22.627Z,1.60
2023-02-11T15:02:28.536Z,2.13
2023-02-11T15:03:32.282Z,2.85
2023-02-11T15:04:36.419Z,3.17